Flight Track Log - Related Links

Times and Time Zones

All times are in EDT time to prevent confusion due to time zone crossing. See the DAL268 flight status page for this flight to view local times or setup timezone preferences in your user account.

Time Position Orientation Groundspeed Altitude Reporting Facility
EDT Latitude Longitude Course Direction KTS MPH feet Rate Location/Type
Sat 06:11:35 PM 33.6333 -84.3333 64° Northeast 220 253 3,100  Level Atlanta TRACON
Sat 06:12:35 PM 33.6333 -84.2500 90° East 269 310 5,400 2,400 Climbing Atlanta TRACON
Sat 06:13:00 PM 33.8632 -84.1313 101° East  Level Estimated
Sat 06:13:35 PM 33.6333 -84.1667 90° East 290 334 7,900  Level Atlanta TRACON
Sat 06:14:00 PM 33.8063 -84.0157 121° Southeast  Level FlightAware Approximate
Sat 06:14:44 PM 33.6378 -84.0489 87° East 297 342 10,400  Level Atlanta Center
Sat 06:15:00 PM 33.7493 -83.9002 121° Southeast  Level FlightAware Approximate
Sat 06:15:44 PM 33.6419 -83.9314 88° East 329 379 11,600  Level Atlanta Center
Sat 06:16:00 PM 33.8261 -83.8028 64° Northeast  Level Estimated
Sat 06:16:44 PM 33.6500 -83.7992 86° East 370 426 13,200  Level Atlanta Center
Sat 06:17:44 PM 33.6600 -83.6594 85° East 411 473 15,300 2,000 Climbing Atlanta Center
Sat 06:18:44 PM 33.6994 -83.5444 68° East 448 516 17,200 1,750 Climbing Atlanta Center
Sat 06:19:44 PM 33.7531 -83.4067 65° Northeast 448 516 18,800 1,650 Climbing Atlanta Center
Sat 06:20:44 PM 33.8128 -83.2661 63° Northeast 448 516 20,500 1,600 Climbing Atlanta Center
Sat 06:21:44 PM 33.8661 -83.1281 65° Northeast 448 516 22,000 1,500 Climbing Atlanta Center
Sat 06:22:44 PM 33.9275 -82.9822 63° Northeast 463 533 23,500 1,700 Climbing Atlanta Center
Sat 06:23:44 PM 33.9783 -82.8389 67° East 463 533 25,400 1,850 Climbing Atlanta Center
Sat 06:24:44 PM 34.0353 -82.6978 64° Northeast 458 527 27,200 1,650 Climbing Atlanta Center
Sat 06:25:44 PM 34.0922 -82.5564 64° Northeast 458 527 28,700 950 Climbing Atlanta Center
Sat 06:26:44 PM 34.1508 -82.4072 65° Northeast 453 521 29,100 800 Climbing Atlanta Center
Sat 06:27:44 PM 34.2072 -82.2681 64° Northeast 453 521 30,300 1,100 Climbing Atlanta Center
Sat 06:28:44 PM 34.2636 -82.1286 64° Northeast 453 521 31,300 850 Climbing Atlanta Center
Sat 06:29:44 PM 34.3283 -82.0014 58° Northeast 448 516 32,000 350 Climbing Atlanta Center
Sat 06:30:44 PM 34.3950 -81.8714 58° Northeast 448 516 32,000  Level Atlanta Center
Sat 06:31:44 PM 34.4594 -81.7411 59° Northeast 448 516 32,000 500 Level Atlanta Center
Sat 06:32:44 PM 34.5217 -81.6108 60° Northeast 448 516 33,000 500 Climbing Atlanta Center
Sat 06:33:44 PM 34.5881 -81.4878 57° Northeast 443 510 33,000  Level Atlanta Center
Sat 06:34:44 PM 34.6478 -81.3625 60° Northeast 433 498 33,000  Level Atlanta Center
Sat 06:35:44 PM 34.7117 -81.2314 59° Northeast 441 507 33,000  Level Atlanta Center
Sat 06:36:44 PM 34.7733 -81.1031 60° Northeast 441 507 33,000  Level Atlanta Center
Sat 06:37:44 PM 34.8331 -80.9819 59° Northeast 441 507 33,000  Level Atlanta Center
Sat 06:38:44 PM 34.8944 -80.8481 61° Northeast 439 505 33,000  Level Atlanta Center
Sat 06:39:44 PM 34.9517 -80.7317 59° Northeast 439 505 33,000  Level Atlanta Center
Sat 06:40:44 PM 35.0131 -80.6050 59° Northeast 434 499 33,000  Level Atlanta Center
Sat 06:42:16 PM 35.1033 -80.4131 60° Northeast 428 493 33,000  Level Washington Center
Sat 06:43:16 PM 35.1625 -80.2844 61° Northeast 428 493 33,000  Level Washington Center
Sat 06:44:16 PM 35.2239 -80.1558 60° Northeast 428 493 33,000  Level Washington Center
Sat 06:45:17 PM 35.2936 -80.0225 57° Northeast 428 493 33,000  Level Washington Center
Sat 06:46:15 PM 35.3525 -79.8933 61° Northeast 428 493 33,000  Level Washington Center
Sat 06:47:15 PM 35.4114 -79.7664 60° Northeast 428 493 33,000  Level Washington Center
Sat 06:48:16 PM 35.4556 -79.6311 68° East 428 493 33,000  Level Washington Center
Sat 06:49:16 PM 35.4917 -79.4925 72° East 423 487 33,000  Level Washington Center
Sat 06:50:17 PM 35.5336 -79.3542 70° East 423 487 33,000  Level Washington Center
Sat 06:51:15 PM 35.5733 -79.2156 71° East 423 487 33,000  Level Washington Center
Sat 06:52:16 PM 35.6086 -79.0794 72° East 423 487 33,000  Level Washington Center
Sat 06:53:17 PM 35.6458 -78.9456 71° East 416 479 33,000  Level Washington Center
Sat 06:54:17 PM 35.6872 -78.8067 70° East 422 486 33,000  Level Washington Center
Sat 06:55:15 PM 35.7286 -78.6650 70° East 427 491 33,000  Level Washington Center
Sat 06:56:15 PM 35.7675 -78.5231 71° East 427 491 33,000  Level Washington Center
Sat 06:57:16 PM 35.8269 -78.3947 60° Northeast 432 497 33,000  Level Washington Center
Sat 06:58:16 PM 35.8906 -78.2661 59° Northeast 427 491 33,000  Level Washington Center
Sat 06:59:17 PM 35.9536 -78.1400 58° Northeast 427 491 33,000  Level Washington Center
Sat 07:00:17 PM 36.0169 -78.0111 59° Northeast 432 497 33,000  Level Washington Center
Sat 07:01:15 PM 36.0819 -77.8819 58° Northeast 438 504 33,000  Level Washington Center
Sat 07:02:15 PM 36.1450 -77.7525 59° Northeast 438 504 33,000  Level Washington Center
Sat 07:03:16 PM 36.2097 -77.6256 58° Northeast 438 504 33,000  Level Washington Center
Sat 07:04:17 PM 36.2639 -77.5111 60° Northeast 438 504 33,000  Level Washington Center
Sat 07:05:18 PM 36.3306 -77.3708 59° Northeast 438 504 33,000  Level Washington Center
Sat 07:06:15 PM 36.3950 -77.2383 59° Northeast 438 504 33,000  Level Washington Center
Sat 07:07:16 PM 36.4717 -77.1211 51° Northeast 438 504 33,000  Level Washington Center
Sat 07:08:16 PM 36.5647 -77.0272 39° Northeast 424 488 33,000  Level Washington Center
Sat 07:09:17 PM 36.6556 -76.9306 40° Northeast 424 488 33,000  Level Washington Center
Sat 07:10:17 PM 36.7506 -76.8336 39° Northeast 429 494 33,000  Level Washington Center
Sat 07:11:15 PM 36.8453 -76.7364 39° Northeast 435 501 33,000  Level Washington Center
Sat 07:12:17 PM 36.9358 -76.6392 41° Northeast 435 501 33,000  Level Washington Center
Sat 07:13:15 PM 37.0328 -76.5442 38° Northeast 435 501 33,000  Level Washington Center
Sat 07:14:15 PM 37.1167 -76.4567 40° Northeast 429 494 33,000  Level Washington Center
Sat 07:15:16 PM 37.2092 -76.3558 41° Northeast 429 494 33,000  Level Washington Center
Sat 07:16:16 PM 37.3017 -76.2603 39° Northeast 429 494 33,000  Level Washington Center
Sat 07:17:17 PM 37.3939 -76.1644 40° Northeast 429 494 33,000  Level Washington Center
Sat 07:18:17 PM 37.4944 -76.0814 33° Northeast 429 494 33,000  Level Washington Center
Sat 07:19:15 PM 37.5947 -75.9956 34° Northeast 429 494 33,000  Level Washington Center
Sat 07:20:15 PM 37.6953 -75.9119 33° Northeast 429 494 33,000  Level Washington Center
Sat 07:21:16 PM 37.7914 -75.8256 35° Northeast 424 488 33,000  Level Washington Center
Sat 07:22:17 PM 37.8956 -75.7417 32° Northeast 424 488 33,000  Level Washington Center
Sat 07:23:17 PM 37.9958 -75.6603 33° Northeast 424 488 33,000  Level Washington Center
Sat 07:24:15 PM 38.1022 -75.5575 37° Northeast 424 488 33,000  Level Washington Center
Sat 07:25:16 PM 38.1794 -75.4886 35° Northeast 424 488 33,000  Level Washington Center
Sat 07:26:17 PM 38.2919 -75.4011 31° Northeast 429 494 33,000  Level Washington Center
Sat 07:27:17 PM 38.3917 -75.3136 35° Northeast 429 494 33,000  Level Washington Center
Sat 07:28:15 PM 38.4936 -75.2256 34° Northeast 429 494 33,000  Level Washington Center
Sat 07:29:16 PM 38.5914 -75.1456 33° Northeast 429 494 33,000  Level Washington Center
Sat 07:30:17 PM 38.6931 -75.0622 33° Northeast 429 494 33,000 -50 Level Washington Center
Sat 07:31:15 PM 38.8011 -74.9922 27° Northeast 429 494 32,900  Descending Washington Center
Sat 07:32:16 PM 38.9050 -74.9275 26° Northeast 419 482 33,000 49 Climbing Washington Center
Sat 07:33:17 PM 39.0111 -74.8597 26° Northeast 414 476 33,000 -694 Level Washington Center
Sat 07:34:17 PM 39.1147 -74.7892 28° Northeast 414 476 31,600 -2,500 Descending Washington Center
Sat 07:35:17 PM 39.2058 -74.6917 40° Northeast 420 483 28,000 -3,109 Descending Washington Center
Sat 07:37:30 PM 39.4203 -74.4553 40° Northeast 421 484 21,600 -2,811 Descending New York Center
Sat 07:38:27 PM 39.5086 -74.3578 40° Northeast 415 478 19,100 -1,831 Descending New York Center
Sat 07:39:28 PM 39.5950 -74.2622 40° Northeast 415 478 18,000 -1,180 Descending New York Center
Sat 07:40:29 PM 39.6792 -74.1694 40° Northeast 399 459 16,700 -1,475 Descending New York Center
Sat 07:41:30 PM 39.7631 -74.0764 40° Northeast 392 451 15,000 -1,488 Descending New York Center
Sat 07:42:30 PM 39.8361 -73.9986 39° Northeast 386 444 13,700 -1,311 Descending New York Center
Sat 07:43:29 PM 39.9233 -73.9322 30° Northeast 374 430 12,400 -1,250 Descending New York Center
Sat 07:44:30 PM 40.0147 -73.8661 29° Northeast 345 397 11,200 -793 Descending New York Center
Sat 07:45:30 PM 40.0853 -73.7986 36° Northeast 318 366 10,800 -875 Descending New York Center
Sat 07:46:06 PM 40.1333 -73.7500 38° Northeast 310 357 9,800 -1,563 Descending New York TRACON
Sat 07:47:06 PM 40.2000 -73.6833 37° Northeast 302 348 8,300 -1,450 Descending New York TRACON
Sat 07:48:06 PM 40.2500 -73.7500 315° West 272 313 6,900 -1,250 Descending New York TRACON
Sat 07:49:06 PM 40.2833 -73.8333 298° West 246 283 5,800 -1,300 Descending New York TRACON
Sat 07:50:06 PM 40.3167 -73.9000 303° West 217 250 4,300 -1,373 Descending New York TRACON
Sat 07:50:29 PM 40.3258 -73.9181 304° West 228 262 3,900 -929 Descending New York Center
Sat 07:51:30 PM 40.3786 -73.9750 321° Northwest 221 254 3,000 -557 Descending New York Center
Sat 07:52:06 PM 40.4167 -73.9833 351° North 221 254 3,000  Level New York TRACON
Sat 07:53:06 PM 40.4667 -73.9833 360° North 207 238 3,000  Level New York TRACON
Sat 07:54:12 PM 40.5333 -73.9500 21° North 206 237 3,000  Level New York TRACON

Login

Don't have an account? Register now (free) for customized features, flight alerts, and more!